Time;durP1;ratioP1;P1;durP2;ratioP2;P2;SDS_P1;SDS_P2;PMS_P1;PMS_P2;Temp;Humidity;BMP_temperature;BMP_pressure;BME280_temperature;BME280_humidity;BME280_pressure;Samples;Min_cycle;Max_cycle;Signal;HPM_P1;HPM_P2
2022/05/04 00:01:55;;;;;;;0.38;0.38;;;10.70;99.90;;;;;;4904464;29;20035;-76
2022/05/04 00:04:21;;;;;;;0.17;0.17;;;10.60;99.90;;;;;;4906049;29;20475;-76
2022/05/04 00:06:46;;;;;;;0.20;0.20;;;10.50;99.90;;;;;;4908513;29;20032;-76
2022/05/04 00:09:12;;;;;;;0.77;0.77;;;10.50;99.90;;;;;;4905398;29;20032;-76
2022/05/04 00:11:37;;;;;;;0.28;0.28;;;10.40;99.90;;;;;;4906174;29;20106;-75
2022/05/04 00:14:03;;;;;;;2.40;1.15;;;10.40;99.90;;;;;;4901974;29;20128;-76
2022/05/04 00:16:28;;;;;;;0.10;0.10;;;10.30;99.90;;;;;;4903779;29;20056;-76
2022/05/04 00:18:54;;;;;;;0.73;0.73;;;10.30;99.90;;;;;;4903912;29;20496;-76
2022/05/04 00:21:19;;;;;;;0.75;0.75;;;10.30;99.90;;;;;;4911885;29;20029;-76
2022/05/04 00:23:45;;;;;;;0.17;0.17;;;10.30;99.90;;;;;;4903814;29;20474;-76
2022/05/04 00:26:10;;;;;;;0.90;0.70;;;10.20;99.90;;;;;;4916560;29;20054;-75
2022/05/04 00:28:36;;;;;;;0.47;0.47;;;10.20;99.90;;;;;;4914199;29;20075;-76
2022/05/04 00:31:01;;;;;;;1.10;1.00;;;10.20;99.90;;;;;;4905726;29;20507;-76
2022/05/04 00:33:27;;;;;;;0.25;0.25;;;10.10;99.90;;;;;;4903231;29;20130;-76
2022/05/04 00:35:52;;;;;;;0.70;0.70;;;10.00;99.90;;;;;;4910664;29;21063;-76
2022/05/04 00:38:18;;;;;;;0.10;0.10;;;10.00;99.90;;;;;;4910532;29;20055;-76
2022/05/04 00:40:43;;;;;;;2.63;1.17;;;10.00;99.90;;;;;;4907114;29;20083;-76
2022/05/04 00:43:38;;;;;;;0.25;0.25;;;10.00;99.90;;;;;;4910770;29;20033;-76
2022/05/04 00:46:04;;;;;;;1.52;1.20;;;10.00;99.90;;;;;;4896087;29;20526;-76
2022/05/04 00:48:30;;;;;;;0.50;0.50;;;9.90;99.90;;;;;;4909336;29;20035;-76
2022/05/04 00:50:55;;;;;;;1.20;0.95;;;9.80;99.90;;;;;;4914795;29;20419;-75
2022/05/04 00:53:22;;;;;;;0.30;0.30;;;9.80;99.90;;;;;;4907196;29;20028;-76
2022/05/04 00:55:49;;;;;;;0.52;0.47;;;9.70;99.90;;;;;;4907743;29;20741;-76
2022/05/04 01:01:01;;;;;;;0.40;0.40;;;9.70;99.90;;;;;;4904872;29;20032;-75
2022/05/04 01:03:27;;;;;;;0.25;0.25;;;9.60;99.90;;;;;;4903453;29;20522;-75
2022/05/04 01:05:52;;;;;;;0.40;0.40;;;9.60;99.90;;;;;;4908661;29;20032;-75
2022/05/04 01:08:18;;;;;;;0.20;0.20;;;9.60;99.90;;;;;;4908634;29;20058;-76
2022/05/04 01:10:43;;;;;;;1.20;0.73;;;9.50;99.90;;;;;;4909927;29;20076;-76
2022/05/04 01:13:09;;;;;;;0.10;0.10;;;9.50;99.90;;;;;;4907908;29;20040;-76
2022/05/04 01:15:35;;;;;;;2.00;0.80;;;9.40;99.90;;;;;;4907542;29;20036;-76
2022/05/04 01:18:00;;;;;;;0.95;0.93;;;9.40;99.90;;;;;;4904058;29;20376;-76
2022/05/04 01:20:26;;;;;;;0.63;0.25;;;9.30;99.90;;;;;;4907250;29;20111;-76
2022/05/04 01:22:51;;;;;;;0.28;0.28;;;9.30;99.90;;;;;;4907650;29;20127;-76
2022/05/04 01:25:17;;;;;;;28.77;1.60;;;9.30;99.90;;;;;;4900928;29;20051;-76
2022/05/04 01:27:42;;;;;;;0.30;0.30;;;9.30;99.90;;;;;;4907294;29;20071;-76
2022/05/04 01:30:08;;;;;;;1.00;0.73;;;9.30;99.90;;;;;;4905782;29;20029;-76
2022/05/04 01:32:34;;;;;;;0.20;0.20;;;9.20;99.90;;;;;;4905841;29;20032;-76
2022/05/04 01:34:59;;;;;;;0.45;0.45;;;9.20;99.90;;;;;;4908860;29;20032;-76
2022/05/04 01:37:25;;;;;;;0.25;0.25;;;9.10;99.90;;;;;;4908400;29;20028;-76
2022/05/04 01:39:51;;;;;;;0.10;0.10;;;9.10;99.90;;;;;;4902644;29;20040;-76
2022/05/04 01:42:16;;;;;;;0.52;0.47;;;9.10;99.90;;;;;;4911912;29;20058;-76
2022/05/04 01:44:44;;;;;;;1.05;0.93;;;9.10;99.90;;;;;;4907131;29;20032;-76
2022/05/04 01:47:10;;;;;;;0.75;0.75;;;9.10;99.90;;;;;;4909269;29;20514;-75
2022/05/04 01:49:36;;;;;;;0.25;0.20;;;9.00;99.90;;;;;;4907933;29;20054;-76
2022/05/04 01:52:02;;;;;;;3.78;1.60;;;9.00;99.90;;;;;;4908992;29;20028;-76
2022/05/04 01:54:28;;;;;;;0.63;0.57;;;9.00;99.90;;;;;;4905531;29;20032;-76
2022/05/04 01:56:53;;;;;;;0.88;0.73;;;9.00;99.90;;;;;;4907212;29;20086;-76
2022/05/04 01:59:19;;;;;;;1.27;1.17;;;8.90;99.90;;;;;;4905678;29;20158;-75
2022/05/04 02:01:45;;;;;;;0.17;0.17;;;8.90;99.90;;;;;;4906298;29;20027;-75
2022/05/04 02:04:11;;;;;;;4.18;1.65;;;8.90;99.90;;;;;;4909313;29;20028;-76
2022/05/04 02:06:37;;;;;;;2.08;1.75;;;8.90;99.90;;;;;;4907673;29;20059;-75
2022/05/04 02:09:04;;;;;;;0.13;0.13;;;8.80;99.90;;;;;;4908921;29;20035;-76
2022/05/04 02:11:32;;;;;;;0.43;0.43;;;8.80;99.90;;;;;;4903157;29;20032;-75
2022/05/04 02:13:58;;;;;;;0.20;0.20;;;8.80;99.90;;;;;;4906207;29;20047;-76
2022/05/04 02:16:23;;;;;;;0.68;0.63;;;8.80;99.90;;;;;;4905056;29;20056;-75
2022/05/04 02:18:49;;;;;;;0.60;0.60;;;8.70;99.90;;;;;;4908161;29;20232;-75
2022/05/04 02:21:14;;;;;;;0.55;0.40;;;8.70;99.90;;;;;;4910475;29;20451;-75
2022/05/04 02:23:40;;;;;;;0.40;0.40;;;8.70;99.90;;;;;;4906152;29;20127;-76
2022/05/04 02:26:05;;;;;;;4.57;0.77;;;8.70;99.90;;;;;;4905186;29;20099;-76
2022/05/04 02:28:31;;;;;;;0.98;0.52;;;8.60;99.90;;;;;;4907629;29;20032;-76
2022/05/04 02:30:56;;;;;;;0.20;0.20;;;8.60;99.90;;;;;;4909403;29;20039;-77
2022/05/04 02:33:21;;;;;;;1.52;0.77;;;8.60;99.90;;;;;;4911835;29;20028;-76
2022/05/04 02:38:31;;;;;;;2.63;0.95;;;8.60;99.90;;;;;;4909173;29;20530;-76
2022/05/04 02:40:57;;;;;;;0.63;0.63;;;8.60;99.90;;;;;;4912395;29;20064;-76
2022/05/04 02:43:22;;;;;;;0.75;0.75;;;8.50;99.90;;;;;;4909638;29;20118;-76
2022/05/04 02:45:48;;;;;;;0.30;0.30;;;8.60;99.90;;;;;;4910989;29;20123;-76
2022/05/04 02:48:13;;;;;;;0.47;0.47;;;8.50;99.90;;;;;;4910792;29;20489;-76
2022/05/04 02:50:39;;;;;;;1.15;1.08;;;8.50;99.90;;;;;;4910493;29;20157;-76
2022/05/04 02:53:04;;;;;;;0.98;0.98;;;8.50;99.90;;;;;;4908947;29;20028;-76
2022/05/04 02:55:30;;;;;;;2.08;0.65;;;8.50;99.90;;;;;;4904000;29;20528;-76
2022/05/04 02:57:56;;;;;;;1.40;0.63;;;8.40;99.90;;;;;;4904814;29;20024;-76
2022/05/04 03:00:21;;;;;;;0.50;0.50;;;8.40;99.90;;;;;;4907423;29;20471;-76
2022/05/04 03:02:47;;;;;;;0.10;0.10;;;8.40;99.90;;;;;;4909903;29;20044;-76
2022/05/04 03:05:14;;;;;;;0.30;0.30;;;8.30;99.90;;;;;;4910178;29;20040;-76
2022/05/04 03:07:40;;;;;;;0.10;0.10;;;8.30;99.90;;;;;;4910700;29;20067;-76
2022/05/04 03:10:16;;;;;;;1.42;1.33;;;8.30;99.90;;;;;;5106550;27;19916;-76
2022/05/04 03:12:43;;;;;;;1.08;1.00;;;8.30;99.90;;;;;;5095919;28;20027;-76
2022/05/04 03:15:09;;;;;;;0.40;0.40;;;8.30;99.90;;;;;;5101255;28;20034;-76
2022/05/04 03:17:35;;;;;;;1.02;0.75;;;8.30;99.90;;;;;;5094267;28;20110;-76
2022/05/04 03:20:01;;;;;;;0.28;0.28;;;8.30;99.90;;;;;;5095760;28;20027;-76
2022/05/04 03:22:26;;;;;;;0.63;0.63;;;8.20;99.90;;;;;;5092791;28;20077;-76
2022/05/04 03:24:52;;;;;;;0.73;0.52;;;8.30;99.90;;;;;;5092833;28;20032;-76
2022/05/04 03:27:18;;;;;;;3.15;1.58;;;8.30;99.90;;;;;;5103530;28;20016;-76
2022/05/04 03:29:43;;;;;;;1.52;1.27;;;8.20;99.90;;;;;;5093842;28;20425;-76
2022/05/04 03:32:09;;;;;;;3.72;1.33;;;8.20;99.90;;;;;;5095549;28;20024;-76
2022/05/04 03:34:35;;;;;;;0.25;0.25;;;8.20;99.90;;;;;;5093448;28;20034;-76
2022/05/04 03:37:01;;;;;;;0.20;0.20;;;8.20;99.90;;;;;;5098852;28;20077;-76
2022/05/04 03:39:27;;;;;;;0.80;0.52;;;8.20;99.90;;;;;;5098713;28;20504;-76
2022/05/04 03:41:53;;;;;;;2.75;1.38;;;8.30;99.90;;;;;;5097325;28;20032;-76
2022/05/04 03:44:18;;;;;;;3.50;1.10;;;8.20;99.90;;;;;;5099548;28;20027;-75
2022/05/04 03:46:46;;;;;;;0.82;0.82;;;8.20;99.90;;;;;;5092670;28;20058;-76
2022/05/04 03:49:13;;;;;;;0.95;0.57;;;8.20;99.90;;;;;;5091268;28;20486;-76
2022/05/04 03:51:39;;;;;;;1.45;1.35;;;8.20;99.90;;;;;;5094887;28;20043;-76
2022/05/04 03:54:04;;;;;;;0.30;0.30;;;8.20;99.90;;;;;;5091520;28;20067;-76
2022/05/04 03:56:30;;;;;;;0.10;0.10;;;8.20;99.90;;;;;;5094437;28;20020;-76
2022/05/04 03:58:55;;;;;;;0.63;0.63;;;8.20;99.90;;;;;;5094502;28;20032;-76
2022/05/04 04:01:21;;;;;;;0.28;0.22;;;8.20;99.90;;;;;;5094451;28;20024;-76
2022/05/04 04:03:47;;;;;;;0.45;0.45;;;8.30;99.90;;;;;;5083752;28;20036;-76
2022/05/04 04:06:13;;;;;;;0.85;0.85;;;8.40;99.90;;;;;;5066537;28;20070;-76
2022/05/04 04:08:38;;;;;;;1.00;0.70;;;8.50;99.90;;;;;;5073543;28;20032;-76
2022/05/04 04:11:04;;;;;;;1.10;1.00;;;8.70;99.90;;;;;;5076477;28;20301;-76
2022/05/04 04:13:29;;;;;;;2.10;1.13;;;8.80;99.90;;;;;;5072936;28;20113;-76
2022/05/04 04:15:55;;;;;;;0.20;0.20;;;9.00;99.90;;;;;;5071691;28;20524;-76
2022/05/04 04:18:22;;;;;;;0.70;0.63;;;9.10;99.90;;;;;;5062521;28;20036;-77
2022/05/04 04:23:34;;;;;;;3.03;0.63;;;9.10;99.90;;;;;;5061609;28;20525;-76
2022/05/04 04:26:00;;;;;;;0.55;0.55;;;9.10;99.90;;;;;;5055100;28;20039;-76
2022/05/04 04:28:25;;;;;;;2.10;0.82;;;9.00;99.90;;;;;;5055746;28;20024;-76
2022/05/04 04:30:51;;;;;;;0.35;0.35;;;9.00;99.90;;;;;;5056196;28;20021;-76
2022/05/04 04:33:16;;;;;;;0.60;0.50;;;9.00;99.90;;;;;;5055229;28;20017;-75
2022/05/04 04:35:42;;;;;;;1.00;0.95;;;9.00;99.90;;;;;;5062145;28;20013;-76
2022/05/04 04:38:07;;;;;;;0.43;0.43;;;9.00;99.90;;;;;;5052248;28;20037;-76
2022/05/04 04:40:33;;;;;;;0.90;0.75;;;9.10;99.90;;;;;;5060395;28;20016;-76
2022/05/04 04:43:02;;;;;;;0.35;0.20;;;9.20;99.90;;;;;;5054749;28;20816;-76
2022/05/04 04:45:28;;;;;;;0.90;0.65;;;9.30;99.90;;;;;;5059153;28;20483;-75
2022/05/04 04:47:54;;;;;;;0.45;0.45;;;9.40;99.90;;;;;;5060378;28;20085;-75
2022/05/04 04:50:19;;;;;;;0.55;0.55;;;9.60;99.90;;;;;;5063564;28;20664;-76
2022/05/04 04:52:45;;;;;;;1.23;1.13;;;9.80;99.90;;;;;;5063270;28;20487;-77
2022/05/04 04:55:11;;;;;;;0.25;0.25;;;10.00;99.90;;;;;;5066183;28;20410;-77
2022/05/04 04:57:37;;;;;;;0.98;0.98;;;10.10;99.90;;;;;;5051339;28;20044;-76
2022/05/04 05:00:05;;;;;;;0.85;0.73;;;10.20;99.90;;;;;;5058658;28;20033;-76
2022/05/04 05:02:30;;;;;;;0.68;0.40;;;10.30;99.90;;;;;;5057066;28;20063;-79
2022/05/04 05:04:56;;;;;;;1.40;1.25;;;10.50;99.90;;;;;;5058742;28;20048;-77
2022/05/04 05:07:21;;;;;;;0.15;0.15;;;10.60;99.90;;;;;;5059790;28;20133;-77
2022/05/04 05:09:47;;;;;;;0.32;0.32;;;10.70;99.90;;;;;;5055632;28;20062;-78
2022/05/04 05:12:12;;;;;;;0.93;0.85;;;10.90;99.90;;;;;;5059000;28;20475;-77
2022/05/04 05:17:22;;;;;;;0.65;0.65;;;11.00;99.90;;;;;;5059792;28;20506;-77
2022/05/04 05:19:48;;;;;;;0.22;0.22;;;10.90;99.90;;;;;;5054156;28;20025;-76
2022/05/04 05:22:13;;;;;;;0.82;0.43;;;10.80;99.90;;;;;;5013040;28;20506;-76
2022/05/04 05:24:38;;;;;;;0.50;0.50;;;10.90;99.90;;;;;;5050032;28;20029;-76
2022/05/04 05:27:06;;;;;;;0.98;0.90;;;11.10;99.90;;;;;;5061238;28;20036;-76
2022/05/04 05:29:32;;;;;;;7.78;1.63;;;11.20;99.90;;;;;;5057653;28;20102;-76
2022/05/04 05:31:57;;;;;;;0.63;0.63;;;11.30;99.90;;;;;;5056024;28;20025;-76
2022/05/04 05:34:23;;;;;;;1.30;0.65;;;11.40;99.90;;;;;;5051776;28;20027;-76
2022/05/04 05:36:48;;;;;;;1.42;1.33;;;11.40;99.90;;;;;;5056815;28;20020;-76
2022/05/04 05:39:13;;;;;;;0.85;0.85;;;11.30;99.90;;;;;;5061756;28;20131;-76
2022/05/04 05:41:39;;;;;;;0.35;0.20;;;11.30;99.90;;;;;;5061962;28;20679;-77
2022/05/04 05:44:04;;;;;;;0.22;0.22;;;11.30;99.90;;;;;;5056005;28;20052;-76
2022/05/04 05:46:30;;;;;;;0.52;0.52;;;11.40;99.90;;;;;;5044666;28;20039;-76
2022/05/04 05:48:58;;;;;;;3.47;0.55;;;11.50;99.90;;;;;;5062130;28;20432;-76
2022/05/04 05:51:23;;;;;;;0.40;0.40;;;11.60;99.90;;;;;;5059604;28;20063;-76
2022/05/04 05:53:49;;;;;;;0.65;0.65;;;11.80;99.90;;;;;;5054663;28;20274;-76
2022/05/04 05:56:14;;;;;;;2.80;2.05;;;11.90;99.90;;;;;;5059044;28;20087;-76
2022/05/04 05:58:40;;;;;;;1.25;0.68;;;12.10;99.90;;;;;;5053234;28;20021;-76
2022/05/04 06:01:06;;;;;;;0.82;0.82;;;12.20;99.90;;;;;;5062182;28;20434;-76
2022/05/04 06:03:31;;;;;;;1.33;1.30;;;12.30;99.90;;;;;;5059352;28;20021;-76
2022/05/04 06:05:57;;;;;;;1.80;1.23;;;12.50;99.90;;;;;;5051057;28;20036;-76
2022/05/04 06:08:22;;;;;;;0.50;0.50;;;12.80;99.90;;;;;;5053197;28;20075;-76
2022/05/04 06:10:48;;;;;;;0.75;0.75;;;13.00;99.90;;;;;;5057317;28;20023;-76
2022/05/04 06:13:13;;;;;;;2.92;1.75;;;13.20;99.90;;;;;;5062402;28;20086;-76
2022/05/04 06:15:39;;;;;;;0.63;0.63;;;13.40;99.90;;;;;;5055155;28;20020;-76
2022/05/04 06:18:05;;;;;;;0.30;0.30;;;13.60;99.90;;;;;;5055806;28;20024;-76
2022/05/04 06:20:31;;;;;;;4.13;2.40;;;13.70;99.90;;;;;;5058889;28;20024;-76
2022/05/04 06:22:56;;;;;;;0.98;0.98;;;13.90;99.90;;;;;;5050304;28;20055;-76
2022/05/04 06:25:22;;;;;;;2.28;2.08;;;14.00;99.90;;;;;;5051870;28;20450;-76
2022/05/04 06:27:48;;;;;;;1.05;0.90;;;14.10;99.90;;;;;;5057329;28;20032;-76
2022/05/04 06:35:41;;;;;;;0.10;0.10;;;14.50;98.00;;;;;;5059484;28;20120;-76
2022/05/04 06:38:07;;;;;;;1.13;1.00;;;14.60;98.30;;;;;;5053691;28;20103;-76
2022/05/04 06:40:32;;;;;;;1.42;1.25;;;14.70;96.40;;;;;;5051397;28;20427;-75
2022/05/04 06:42:59;;;;;;;3.42;1.33;;;14.80;95.20;;;;;;5050778;28;20098;-74
2022/05/04 06:45:24;;;;;;;1.08;0.98;;;14.80;94.70;;;;;;5059561;28;20036;-74
2022/05/04 06:47:50;;;;;;;1.10;1.02;;;14.80;96.00;;;;;;5057834;28;20537;-73
2022/05/04 06:50:17;;;;;;;4.80;2.05;;;14.90;95.70;;;;;;5058707;28;20032;-75
2022/05/04 06:52:42;;;;;;;0.30;0.30;;;15.00;94.40;;;;;;5060716;28;20028;-75
2022/05/04 06:55:09;;;;;;;0.90;0.88;;;15.10;94.60;;;;;;5058740;28;20467;-75
2022/05/04 06:57:35;;;;;;;1.77;1.05;;;15.20;95.60;;;;;;5059908;28;20059;-75
2022/05/04 07:00:04;;;;;;;0.57;0.57;;;15.30;95.90;;;;;;5052201;28;20383;-75
2022/05/04 07:02:33;;;;;;;0.70;0.70;;;15.40;95.20;;;;;;5049479;28;20462;-75
2022/05/04 07:04:59;;;;;;;0.68;0.50;;;15.50;93.40;;;;;;5052786;28;20056;-75
2022/05/04 07:07:25;;;;;;;0.95;0.95;;;15.50;93.70;;;;;;5058911;28;20048;-75
2022/05/04 07:09:50;;;;;;;1.50;1.30;;;15.60;93.60;;;;;;5062130;28;20711;-75
2022/05/04 07:12:16;;;;;;;0.68;0.20;;;15.60;93.20;;;;;;5056810;28;20123;-75
2022/05/04 07:14:41;;;;;;;0.57;0.57;;;15.60;94.00;;;;;;5042586;28;20025;-76
2022/05/04 07:17:07;;;;;;;2.92;2.13;;;15.60;94.40;;;;;;5048780;28;20067;-75
2022/05/04 07:19:32;;;;;;;0.95;0.85;;;15.60;92.70;;;;;;5055612;28;20017;-75
2022/05/04 07:21:58;;;;;;;3.70;0.80;;;15.80;92.30;;;;;;5062653;28;20406;-75
2022/05/04 07:24:26;;;;;;;1.15;0.77;;;15.80;93.50;;;;;;5056643;28;20025;-75
2022/05/04 07:26:52;;;;;;;4.13;1.42;;;15.60;93.70;;;;;;5045434;28;20274;-76
2022/05/04 07:29:17;;;;;;;0.63;0.50;;;15.80;91.60;;;;;;5048840;28;20036;-75
2022/05/04 07:31:43;;;;;;;0.10;0.10;;;16.00;91.10;;;;;;5054191;28;20029;-78
2022/05/04 07:34:09;;;;;;;3.95;1.05;;;16.20;91.40;;;;;;5050218;28;20033;-75
2022/05/04 07:36:35;;;;;;;0.93;0.77;;;16.10;92.20;;;;;;5051547;28;20025;-75
2022/05/04 07:39:00;;;;;;;2.20;1.33;;;15.90;92.40;;;;;;5058014;28;20034;-75
2022/05/04 07:44:10;;;;;;;0.47;0.47;;;15.90;92.10;;;;;;5048551;28;20166;-76
2022/05/04 07:46:36;;;;;;;0.60;0.57;;;15.80;93.20;;;;;;5046085;28;20111;-75
2022/05/04 07:49:02;;;;;;;1.73;1.13;;;15.50;92.50;;;;;;5058427;28;20045;-76
2022/05/04 07:51:27;;;;;;;2.40;1.60;;;15.50;93.30;;;;;;5053563;28;20029;-76
2022/05/04 07:54:12;;;;;;;1.45;0.75;;;15.30;96.90;;;;;;5050489;28;20040;-76
2022/05/04 07:56:38;;;;;;;3.15;1.20;;;15.30;96.10;;;;;;5059058;28;20368;-76
2022/05/04 07:59:04;;;;;;;0.68;0.40;;;15.20;94.80;;;;;;5057989;28;20033;-76
2022/05/04 08:04:16;;;;;;;1.75;0.98;;;15.20;95.70;;;;;;5061628;28;20032;-75
2022/05/04 08:06:41;;;;;;;0.73;0.30;;;15.30;94.80;;;;;;5062018;28;20471;-75
2022/05/04 08:09:07;;;;;;;0.65;0.65;;;15.40;94.40;;;;;;5055495;28;20102;-76
2022/05/04 08:11:32;;;;;;;0.40;0.40;;;15.50;94.10;;;;;;5060237;28;20039;-76
2022/05/04 08:13:58;;;;;;;0.20;0.20;;;15.50;90.40;;;;;;5054050;28;20481;-75
2022/05/04 08:16:23;;;;;;;0.32;0.25;;;15.60;87.20;;;;;;5060848;28;20047;-75
2022/05/04 08:18:49;;;;;;;0.20;0.20;;;15.60;87.30;;;;;;5050512;28;20079;-76
2022/05/04 08:21:14;;;;;;;4.68;1.40;;;15.70;87.10;;;;;;5056381;28;20032;-76
2022/05/04 08:23:40;;;;;;;1.30;0.70;;;15.80;87.00;;;;;;5060186;28;20024;-76
2022/05/04 08:26:06;;;;;;;0.50;0.50;;;16.00;85.00;;;;;;5057313;28;20114;-76
2022/05/04 08:28:31;;;;;;;1.08;1.05;;;16.00;84.40;;;;;;5057346;28;20060;-75
2022/05/04 08:30:57;;;;;;;1.35;1.00;;;16.00;79.30;;;;;;5056846;28;20048;-76
2022/05/04 08:33:23;;;;;;;0.13;0.13;;;16.00;81.40;;;;;;5058552;28;20035;-76
2022/05/04 08:35:48;;;;;;;2.00;1.10;;;16.30;81.90;;;;;;5065087;28;20027;-75
2022/05/04 08:38:14;;;;;;;0.73;0.73;;;16.50;81.40;;;;;;5057463;28;20067;-75
2022/05/04 08:40:40;;;;;;;0.32;0.32;;;16.60;77.70;;;;;;5059829;28;20474;-76
2022/05/04 08:43:07;;;;;;;0.68;0.60;;;16.70;77.10;;;;;;5051171;28;20378;-76
2022/05/04 08:45:39;;;;;;;0.75;0.75;;;16.80;76.10;;;;;;5052293;28;20028;-75
2022/05/04 08:48:06;;;;;;;0.43;0.43;;;16.70;74.70;;;;;;5052130;28;20078;-76
2022/05/04 08:50:33;;;;;;;1.67;1.27;;;16.60;75.20;;;;;;5057504;28;20029;-76
2022/05/04 08:53:00;;;;;;;0.25;0.25;;;16.80;76.60;;;;;;5052802;28;20025;-76
2022/05/04 08:55:26;;;;;;;0.40;0.40;;;16.90;78.90;;;;;;5053951;28;20112;-76
2022/05/04 08:57:54;;;;;;;0.32;0.32;;;17.00;74.70;;;;;;5055345;28;20163;-76
2022/05/04 09:00:20;;;;;;;0.22;0.10;;;17.00;69.30;;;;;;5057227;28;20033;-76
2022/05/04 09:02:46;;;;;;;0.40;0.40;;;16.80;70.60;;;;;;5055056;28;20560;-76
2022/05/04 09:05:18;;;;;;;0.30;0.30;;;16.80;70.60;;;;;;5054689;28;20033;-74
2022/05/04 09:07:48;;;;;;;0.93;0.73;;;16.80;73.10;;;;;;5061512;28;20047;-75
2022/05/04 09:10:19;;;;;;;0.68;0.68;;;16.90;69.90;;;;;;5021315;28;20038;-75
2022/05/04 09:12:46;;;;;;;0.47;0.47;;;17.10;70.20;;;;;;5013143;28;20061;-76
2022/05/04 09:15:26;;;;;;;0.75;0.63;;;17.10;70.30;;;;;;5015279;28;20030;-75
2022/05/04 09:17:57;;;;;;;1.67;1.00;;;17.20;69.20;;;;;;5022256;28;20033;-74
2022/05/04 09:20:55;;;;;;;1.65;0.75;;;17.50;69.50;;;;;;5018894;28;20048;-74
2022/05/04 09:23:29;;;;;;;0.08;0.08;;;17.70;68.40;;;;;;5012514;28;20049;-76
2022/05/04 09:26:02;;;;;;;0.50;0.50;;;18.20;66.40;;;;;;5011532;28;20613;-75
2022/05/04 09:28:29;;;;;;;1.85;0.35;;;18.20;67.50;;;;;;5018794;28;20116;-76
2022/05/04 09:30:56;;;;;;;2.33;0.75;;;18.50;67.70;;;;;;5023612;28;20072;-75
2022/05/04 09:33:29;;;;;;;0.20;0.20;;;18.60;69.70;;;;;;5017989;28;20970;-74
2022/05/04 09:35:56;;;;;;;0.68;0.68;;;19.10;64.10;;;;;;5016798;28;20036;-75
2022/05/04 09:46:52;;;;;;;5.05;1.02;;;19.70;59.90;;;;;;5017092;28;20033;-75
2022/05/04 09:49:22;;;;;;;1.15;0.82;;;19.80;60.10;;;;;;5012325;28;20026;-75
2022/05/04 09:51:51;;;;;;;0.82;0.20;;;20.10;59.70;;;;;;5012974;28;20030;-75
2022/05/04 09:54:27;;;;;;;0.60;0.60;;;20.10;57.60;;;;;;5009775;28;20033;-75
2022/05/04 09:56:55;;;;;;;1.05;0.77;;;19.60;57.50;;;;;;5021242;28;20021;-75
2022/05/04 09:59:24;;;;;;;0.52;0.32;;;19.50;58.60;;;;;;5020794;28;20397;-74
2022/05/04 10:01:51;;;;;;;0.40;0.40;;;19.60;58.60;;;;;;5008461;28;20033;-76
2022/05/04 10:04:17;;;;;;;0.20;0.20;;;19.60;59.00;;;;;;5022435;28;20480;-74
2022/05/04 10:06:43;;;;;;;1.15;0.93;;;20.00;62.30;;;;;;5016190;28;20025;-74
2022/05/04 10:09:09;;;;;;;1.05;0.82;;;20.10;59.20;;;;;;5038046;28;20044;-74
2022/05/04 10:11:35;;;;;;;2.60;1.10;;;20.10;60.70;;;;;;5056101;28;20054;-75
2022/05/04 10:14:04;;;;;;;0.43;0.43;;;19.90;58.20;;;;;;5053237;28;20017;-75
2022/05/04 10:16:39;;;;;;;0.10;0.10;;;20.20;59.30;;;;;;5050851;28;20090;-74
2022/05/04 10:19:08;;;;;;;0.38;0.22;;;20.60;58.60;;;;;;5050787;28;20029;-76
2022/05/04 10:21:43;;;;;;;0.75;0.57;;;20.60;56.10;;;;;;5058897;28;20031;-75
2022/05/04 10:24:10;;;;;;;1.17;0.73;;;20.80;56.20;;;;;;5060009;28;20046;-75
2022/05/04 10:26:37;;;;;;;1.30;0.57;;;20.80;56.90;;;;;;5057747;28;20510;-76
2022/05/04 10:32:09;;;;;;;0.20;0.20;;;20.80;57.30;;;;;;5058765;28;20089;-75
2022/05/04 10:34:41;;;;;;;0.75;0.50;;;20.90;54.80;;;;;;5052779;28;20091;-75
2022/05/04 10:37:06;;;;;;;0.47;0.32;;;21.20;56.00;;;;;;5058809;28;20039;-74
2022/05/04 10:39:33;;;;;;;0.75;0.60;;;21.40;54.80;;;;;;5054351;28;20028;-75
2022/05/04 10:42:00;;;;;;;0.30;0.30;;;21.10;53.80;;;;;;5058333;28;20051;-75
2022/05/04 10:44:53;;;;;;;0.40;0.40;;;21.10;54.90;;;;;;5062187;28;20033;-75
2022/05/04 10:47:19;;;;;;;0.52;0.52;;;21.00;54.50;;;;;;5054335;28;20025;-75
2022/05/04 10:49:44;;;;;;;1.10;0.70;;;20.90;56.10;;;;;;5059952;28;20486;-75
2022/05/04 10:52:10;;;;;;;2.13;0.35;;;20.50;55.60;;;;;;5049516;28;20415;-75
2022/05/04 10:54:47;;;;;;;0.40;0.40;;;20.20;55.70;;;;;;5058932;28;20051;-75
2022/05/04 10:57:13;;;;;;;0.50;0.50;;;20.20;55.90;;;;;;5058337;28;20099;-74
2022/05/04 10:59:39;;;;;;;1.55;1.13;;;20.30;55.40;;;;;;5059763;28;20025;-74
2022/05/04 11:02:11;;;;;;;0.30;0.30;;;20.30;55.20;;;;;;5053633;28;20028;-75
2022/05/04 11:04:37;;;;;;;0.82;0.55;;;20.20;56.50;;;;;;5054165;28;20584;-74
2022/05/04 11:07:05;;;;;;;1.27;0.65;;;20.20;56.50;;;;;;5057457;28;20028;-75
2022/05/04 11:09:40;;;;;;;0.60;0.50;;;20.00;56.10;;;;;;5062425;28;20048;-75
2022/05/04 11:12:07;;;;;;;0.40;0.40;;;20.20;57.30;;;;;;5060616;28;20032;-75
2022/05/04 11:14:34;;;;;;;1.65;0.43;;;20.10;56.90;;;;;;5047630;28;20017;-74
2022/05/04 11:17:01;;;;;;;0.65;0.65;;;20.50;57.50;;;;;;5054438;28;20078;-75
2022/05/04 11:19:32;;;;;;;0.98;0.90;;;20.60;56.00;;;;;;5055939;28;20435;-74
2022/05/04 11:21:58;;;;;;;0.47;0.30;;;20.80;57.10;;;;;;5063913;28;20383;-74
2022/05/04 11:24:27;;;;;;;1.45;0.93;;;21.10;55.70;;;;;;5051129;28;20036;-75
2022/05/04 11:26:55;;;;;;;0.20;0.20;;;21.60;56.20;;;;;;5057976;28;20056;-75
2022/05/04 11:29:23;;;;;;;0.47;0.47;;;21.90;54.80;;;;;;5046417;28;20241;-75
2022/05/04 11:31:54;;;;;;;0.52;0.52;;;22.00;54.40;;;;;;5063195;28;20047;-74
2022/05/04 11:34:21;;;;;;;1.65;1.27;;;22.00;53.90;;;;;;5053216;28;20028;-75
2022/05/04 11:36:50;;;;;;;1.58;1.00;;;22.50;52.90;;;;;;5053383;28;20356;-75
2022/05/04 11:39:44;;;;;;;0.20;0.20;;;22.80;52.00;;;;;;5049897;28;20052;-74
2022/05/04 11:42:10;;;;;;;0.68;0.68;;;23.00;50.60;;;;;;5059835;28;20041;-74
2022/05/04 11:44:38;;;;;;;0.20;0.20;;;23.70;51.10;;;;;;5060207;28;20139;-75
2022/05/04 11:47:03;;;;;;;1.33;1.23;;;24.30;49.10;;;;;;5057070;28;20486;-75
2022/05/04 11:49:31;;;;;;;1.25;0.65;;;24.70;46.60;;;;;;5057763;28;20071;-75
2022/05/04 11:51:59;;;;;;;0.35;0.35;;;24.90;46.70;;;;;;5064549;28;20020;-75
2022/05/04 11:54:25;;;;;;;0.70;0.68;;;24.90;45.80;;;;;;5059486;28;20024;-75
2022/05/04 11:56:50;;;;;;;2.17;1.15;;;25.30;43.20;;;;;;5062556;28;20103;-74
2022/05/04 11:59:16;;;;;;;1.02;0.82;;;25.50;44.40;;;;;;5059577;28;20028;-75
2022/05/04 12:01:42;;;;;;;1.08;0.70;;;26.20;43.10;;;;;;5060540;28;20043;-76
2022/05/04 12:04:10;;;;;;;0.77;0.63;;;26.50;41.40;;;;;;5061442;28;20020;-75
2022/05/04 12:06:37;;;;;;;1.05;0.60;;;26.50;41.70;;;;;;5058776;28;20063;-75
2022/05/04 12:09:03;;;;;;;0.52;0.50;;;26.60;41.60;;;;;;5055321;28;20251;-76
2022/05/04 12:11:30;;;;;;;0.20;0.20;;;25.90;42.90;;;;;;5058916;28;20021;-76
2022/05/04 12:13:56;;;;;;;0.40;0.40;;;24.70;43.00;;;;;;5055838;28;20372;-76
2022/05/04 12:16:22;;;;;;;0.50;0.50;;;24.10;43.20;;;;;;5052951;28;20040;-76
2022/05/04 12:18:49;;;;;;;1.05;0.95;;;24.10;45.30;;;;;;5048447;28;21433;-76
2022/05/04 12:21:16;;;;;;;0.45;0.38;;;24.00;45.60;;;;;;5061185;28;20056;-76
2022/05/04 12:23:45;;;;;;;0.52;0.35;;;24.10;46.20;;;;;;5053895;28;20037;-75
2022/05/04 12:26:12;;;;;;;0.22;0.20;;;24.20;47.40;;;;;;5061546;28;20515;-75
2022/05/04 12:28:40;;;;;;;0.40;0.40;;;24.10;48.20;;;;;;5058620;28;20033;-75
2022/05/04 12:34:02;;;;;;;0.20;0.20;;;24.00;48.10;;;;;;5061246;28;20055;-76
2022/05/04 12:36:27;;;;;;;1.55;1.27;;;23.80;47.60;;;;;;5060142;28;20102;-76
2022/05/04 12:38:56;;;;;;;4.15;1.08;;;23.70;49.00;;;;;;5056700;28;20025;-75
2022/05/04 12:41:25;;;;;;;1.08;0.40;;;23.90;47.20;;;;;;5055052;28;20566;-76
2022/05/04 12:43:51;;;;;;;1.95;1.00;;;23.60;48.40;;;;;;5052838;28;20122;-75
2022/05/04 12:46:25;;;;;;;0.20;0.20;;;23.70;49.50;;;;;;5054655;28;20507;-75
2022/05/04 12:48:51;;;;;;;0.25;0.25;;;23.70;50.00;;;;;;5054257;28;20032;-76
2022/05/04 12:51:18;;;;;;;0.45;0.45;;;23.60;48.50;;;;;;5051748;28;20033;-76
2022/05/04 12:53:48;;;;;;;0.32;0.32;;;23.50;49.60;;;;;;5060884;28;20032;-76
2022/05/04 12:59:01;;;;;;;0.20;0.20;;;23.90;48.10;;;;;;5058564;28;20063;-76
2022/05/04 13:01:28;;;;;;;0.95;0.80;;;23.90;47.50;;;;;;5051469;28;20067;-76
2022/05/04 13:03:54;;;;;;;0.22;0.20;;;23.70;47.50;;;;;;5056128;28;20510;-76
2022/05/04 13:06:20;;;;;;;1.33;0.80;;;23.60;49.80;;;;;;5054910;28;20037;-76
2022/05/04 13:08:48;;;;;;;1.38;1.00;;;23.60;48.90;;;;;;5057522;28;20434;-76
2022/05/04 13:11:17;;;;;;;1.17;0.85;;;24.70;47.30;;;;;;5052392;28;20025;-76
2022/05/04 13:13:43;;;;;;;0.77;0.63;;;25.50;45.90;;;;;;5052358;28;20471;-76
2022/05/04 13:16:08;;;;;;;0.95;0.50;;;26.10;45.10;;;;;;5055696;28;20071;-76
2022/05/04 13:18:34;;;;;;;0.13;0.13;;;26.20;43.90;;;;;;5052933;28;20509;-76
2022/05/04 13:20:59;;;;;;;0.73;0.73;;;26.10;43.50;;;;;;5061548;28;20029;-76
2022/05/04 13:23:25;;;;;;;2.58;1.08;;;25.90;45.50;;;;;;5056941;28;20033;-74
2022/05/04 13:25:51;;;;;;;0.22;0.22;;;25.20;44.10;;;;;;5052149;28;20021;-74
2022/05/04 13:28:16;;;;;;;1.50;1.10;;;25.10;46.50;;;;;;5063028;28;20024;-76